Catàleg de serveis del Meteocat

Dades de l'estació automàtica Terrassa

?
?
Resum diari 22:00 TU
Dades diàries de l'estació meteorològica
Temperatura mitjana 13.3 °C
Temperatura màxima 21.6 °C 14:44 TU
Temperatura mínima 6.0 °C 6:16 TU
Humitat relativa mitjana 52%
Precipitació acumulada 0.0 mm
Ratxa màxima del vent (10 m) 25.9 km/h - 298º 12:54 TU
Irradiació solar global 15.9 MJ/m2

El tram horari està expressat en Temps Universal (TU). Cal sumar una hora en horari d'hivern i dues en horari d'estiu per passar a l'hora oficial.

Terrassa

Metadades estació meteorol´gica
Municipi Terrassa
Comarca Vallès Occidental
Altitud 313 m
Data alta 20.12.2018
Estat actual Operativa
Dades de període
Període
TU
TM
°C
TX
°C
TN
°C
HRM
%
PPT
mm
VVM (10 m)
km/h
DVM (10 m)
graus
VVX (10 m)
km/h
RS
W/m2
00:00 - 00:30 8.7 9.6 7.7 76 0.0 6.8 244 12.6 0
00:30 - 01:00 8.9 9.8 8.2 72 0.0 5.0 251 12.2 0
01:00 - 01:30 8.5 9.0 7.6 72 0.0 6.1 260 12.6 0
01:30 - 02:00 7.6 8.4 6.8 75 0.0 8.6 252 16.9 0
02:00 - 02:30 7.6 8.5 7.3 75 0.0 9.4 267 24.1 0
02:30 - 03:00 8.3 8.5 8.0 70 0.0 6.8 289 17.3 0
03:00 - 03:30 8.4 9.2 7.8 68 0.0 6.5 295 22.3 0
03:30 - 04:00 8.1 9.2 6.6 68 0.0 12.2 289 25.6 0
04:00 - 04:30 7.2 8.2 6.6 73 0.0 10.1 281 23.4 0
04:30 - 05:00 7.0 7.9 6.3 77 0.0 8.3 279 22.0 0
05:00 - 05:30 8.2 8.6 7.8 71 0.0 6.1 284 19.4 0
05:30 - 06:00 8.0 9.0 6.4 70 0.0 7.6 265 16.2 0
06:00 - 06:30 6.6 7.3 6.0 75 0.0 8.6 253 15.8 0
06:30 - 07:00 8.2 8.5 7.5 69 0.0 8.3 296 22.3 8
07:00 - 07:30 8.2 8.6 7.9 69 0.0 7.6 285 16.9 70
07:30 - 08:00 9.0 9.5 8.6 67 0.0 5.8 273 13.7 159
08:00 - 08:30 9.5 9.8 9.2 66 0.0 7.6 270 20.9 255
08:30 - 09:00 10.3 11.1 9.8 63 0.0 8.3 261 17.3 356
09:00 - 09:30 11.7 12.3 11.2 57 0.0 9.0 284 22.3 447
09:30 - 10:00 13.1 13.9 12.5 52 0.0 11.5 286 24.8 524
10:00 - 10:30 14.8 15.2 14.0 47 0.0 9.0 272 19.4 585
10:30 - 11:00 15.7 16.3 14.9 41 0.0 11.9 282 25.6 635
11:00 - 11:30 16.7 17.5 16.2 37 0.0 10.8 289 22.7 670
11:30 - 12:00 18.0 18.7 17.3 34 0.0 10.8 288 20.2 684
12:00 - 12:30 18.8 19.3 18.3 30 0.0 12.6 293 23.0 687
12:30 - 13:00 19.3 19.8 18.8 27 0.0 15.1 296 25.9 676
13:00 - 13:30 19.9 20.4 19.7 27 0.0 14.4 298 24.5 645
13:30 - 14:00 20.5 21.1 19.7 25 0.0 11.9 291 22.0 593
14:00 - 14:30 21.3 21.5 21.1 24 0.0 10.4 271 18.4 526
14:30 - 15:00 21.3 21.6 21.0 26 0.0 10.1 269 19.4 444
15:00 - 15:30 21.2 21.6 20.9 29 0.0 10.1 288 19.4 358
15:30 - 16:00 21.1 21.2 20.7 28 0.0 8.6 274 15.5 267
16:00 - 16:30 20.6 21.0 20.2 28 0.0 7.6 291 15.8 174
16:30 - 17:00 19.9 20.3 19.3 29 0.0 6.8 292 12.6 100
17:00 - 17:30 18.3 19.3 17.5 33 0.0 5.4 276 9.7 29
17:30 - 18:00 16.6 17.6 15.9 36 0.0 4.3 274 7.9 0
18:00 - 18:30 15.3 15.8 14.9 40 0.0 5.8 259 11.2 0
18:30 - 19:00 14.4 14.8 14.1 44 0.0 6.1 258 10.8 0
19:00 - 19:30 14.2 14.8 13.8 45 0.0 6.8 262 11.9 0
19:30 - 20:00 13.6 13.8 13.3 47 0.0 6.5 255 12.6 0
20:00 - 20:30 12.9 13.6 12.4 49 0.0 7.2 252 13.0 0
20:30 - 21:00 12.2 12.6 11.7 53 0.0 7.2 239 12.2 0
21:00 - 21:30 12.7 13.1 12.4 52 0.0 6.1 275 15.1 0
21:30 - 22:00 12.7 13.0 12.2 54 0.0 6.5 264 13.0 0
22:00 - 22:30 12.8 13.2 12.5 55 0.0 7.9 265 17.6 0

Les dades en taronja només han passat un control de qualitat automàtic. Resta pendent la seva validació definitiva.